createdAt,value
2019-05-13T00:00:44.893Z,6.13
2019-05-13T00:03:14.401Z,6.03
2019-05-13T00:05:44.537Z,5.83
2019-05-13T00:08:14.259Z,6.40
2019-05-13T00:10:44.620Z,6.23
2019-05-13T00:13:14.664Z,7.27
2019-05-13T00:15:44.571Z,6.47
2019-05-13T00:18:14.524Z,7.17
2019-05-13T00:20:44.919Z,6.93
2019-05-13T00:23:14.575Z,7.33
2019-05-13T00:25:44.656Z,7.03
2019-05-13T00:28:14.648Z,6.97
2019-05-13T00:30:44.845Z,8.20
2019-05-13T00:33:14.736Z,6.47
2019-05-13T00:35:44.470Z,7.80
2019-05-13T00:38:14.388Z,6.80
2019-05-13T00:40:44.509Z,6.83
2019-05-13T00:43:15.189Z,7.13
2019-05-13T00:45:45.166Z,9.40
2019-05-13T00:48:14.980Z,6.73
2019-05-13T00:50:44.837Z,7.80
2019-05-13T00:53:14.299Z,7.20
2019-05-13T00:55:44.552Z,8.07
2019-05-13T00:58:14.507Z,7.10
2019-05-13T01:00:44.809Z,6.73
2019-05-13T01:03:15.399Z,7.87
2019-05-13T01:05:44.870Z,7.60
2019-05-13T01:08:14.661Z,7.27
2019-05-13T01:10:45.274Z,7.83
2019-05-13T01:13:15.180Z,7.43
2019-05-13T01:15:44.601Z,8.03
2019-05-13T01:18:14.513Z,7.43
2019-05-13T01:20:44.134Z,7.60
2019-05-13T01:23:14.119Z,8.10
2019-05-13T01:25:44.652Z,8.57
2019-05-13T01:28:14.209Z,7.47
2019-05-13T01:30:44.071Z,7.50
2019-05-13T01:33:14.441Z,7.70
2019-05-13T01:35:44.744Z,8.77
2019-05-13T01:38:14.310Z,7.53
2019-05-13T01:40:44.160Z,7.27
2019-05-13T01:43:14.537Z,7.70
2019-05-13T01:45:44.467Z,7.80
2019-05-13T01:48:14.413Z,6.67
2019-05-13T01:50:44.688Z,7.40
2019-05-13T01:53:14.631Z,7.23
2019-05-13T01:55:44.479Z,7.33
2019-05-13T01:58:14.689Z,7.43
2019-05-13T02:00:44.554Z,7.57
2019-05-13T02:03:14.724Z,7.20
2019-05-13T02:05:44.541Z,8.10
2019-05-13T02:08:14.524Z,6.90
2019-05-13T02:10:54.302Z,7.23
2019-05-13T02:13:25.146Z,8.20
2019-05-13T02:15:55.988Z,6.90
2019-05-13T02:18:25.497Z,7.70
2019-05-13T02:20:55.756Z,7.23
2019-05-13T02:23:25.617Z,7.60
2019-05-13T02:25:55.071Z,7.17
2019-05-13T02:28:25.298Z,8.03
2019-05-13T02:30:56.422Z,7.83
2019-05-13T02:33:26.386Z,7.23
2019-05-13T02:35:56.118Z,7.63
2019-05-13T02:38:30.142Z,7.20
2019-05-13T02:40:57.582Z,6.77
2019-05-13T02:43:27.377Z,6.90
2019-05-13T02:45:56.842Z,7.93
2019-05-13T02:48:26.293Z,7.07
2019-05-13T02:50:55.778Z,6.90
2019-05-13T02:53:27.219Z,7.37
2019-05-13T02:55:56.360Z,7.00
2019-05-13T02:58:25.742Z,6.67
2019-05-13T03:00:55.923Z,7.27
2019-05-13T03:03:25.362Z,7.10
2019-05-13T03:05:54.866Z,6.63
2019-05-13T03:08:39.278Z,6.70
2019-05-13T03:10:56.051Z,6.77
2019-05-13T03:13:25.594Z,6.80
2019-05-13T03:16:04.897Z,6.43
2019-05-13T03:18:34.309Z,6.37
2019-05-13T03:21:03.995Z,7.47
2019-05-13T03:23:33.458Z,6.87
2019-05-13T03:26:03.364Z,7.30
2019-05-13T03:28:33.937Z,6.77
2019-05-13T03:31:06.444Z,6.63
2019-05-13T03:33:37.601Z,6.73
2019-05-13T03:36:08.088Z,6.97
2019-05-13T03:38:58.758Z,6.67
2019-05-13T03:41:12.433Z,7.63
2019-05-13T03:43:43.370Z,7.27
2019-05-13T03:46:14.191Z,7.43
2019-05-13T03:48:44.375Z,6.80
2019-05-13T03:51:14.077Z,7.27
2019-05-13T03:53:44.757Z,7.03
2019-05-13T03:56:14.142Z,7.20
2019-05-13T03:58:43.908Z,6.40
2019-05-13T04:01:13.802Z,7.07
2019-05-13T04:03:44.506Z,7.10
2019-05-13T04:06:14.309Z,12.17
2019-05-13T04:08:44.330Z,8.13
2019-05-13T04:11:14.652Z,7.20
2019-05-13T04:13:44.092Z,8.20
2019-05-13T04:16:13.928Z,7.90
2019-05-13T04:18:43.560Z,8.93
2019-05-13T04:21:13.608Z,7.83
2019-05-13T04:23:43.311Z,8.10
2019-05-13T04:26:14.992Z,8.03
2019-05-13T04:28:45.030Z,9.17
2019-05-13T04:31:15.318Z,7.20
2019-05-13T04:33:45.136Z,8.10
2019-05-13T04:36:14.974Z,8.10
2019-05-13T04:38:44.930Z,7.90
2019-05-13T04:41:15.190Z,7.67
2019-05-13T04:43:45.680Z,8.17
2019-05-13T04:46:15.508Z,7.93
2019-05-13T04:48:45.298Z,7.93
2019-05-13T04:51:14.874Z,6.83
2019-05-13T04:53:44.523Z,7.47
2019-05-13T04:56:14.529Z,8.37
2019-05-13T04:58:44.079Z,7.90
2019-05-13T05:02:07.187Z,7.13
2019-05-13T05:04:46.022Z,10.03
2019-05-13T05:07:55.641Z,7.30
2019-05-13T05:11:02.157Z,7.07
2019-05-13T05:13:59.114Z,7.27
2019-05-13T05:17:03.333Z,7.17
2019-05-13T05:20:03.511Z,7.87
2019-05-13T05:23:35.257Z,7.33
2019-05-13T05:26:47.644Z,9.13
2019-05-13T05:29:34.845Z,6.67
2019-05-13T05:32:53.376Z,7.20
2019-05-13T05:36:07.107Z,7.10
2019-05-13T05:39:05.376Z,6.77
2019-05-13T05:41:35.701Z,7.77
2019-05-13T05:44:07.477Z,7.27
2019-05-13T05:46:56.736Z,6.87
2019-05-13T05:49:27.276Z,6.80
2019-05-13T05:52:03.405Z,7.33
2019-05-13T05:54:35.277Z,7.60
2019-05-13T05:57:07.025Z,8.07
2019-05-13T05:59:37.397Z,6.67
2019-05-13T06:02:07.912Z,7.00
2019-05-13T06:04:37.569Z,7.00
2019-05-13T06:07:07.214Z,7.57
2019-05-13T06:09:36.729Z,11.10
2019-05-13T06:12:08.125Z,7.90
2019-05-13T06:14:39.142Z,9.00
2019-05-13T06:17:11.377Z,8.47
2019-05-13T06:19:41.855Z,9.47
2019-05-13T06:22:12.289Z,8.43
2019-05-13T06:24:42.277Z,7.53
2019-05-13T06:27:12.001Z,6.53
2019-05-13T06:29:42.321Z,6.20
2019-05-13T06:32:21.498Z,6.40
2019-05-13T06:34:43.304Z,7.17
2019-05-13T06:37:12.933Z,9.10
2019-05-13T06:39:42.771Z,6.93
2019-05-13T06:42:14.090Z,9.60
2019-05-13T06:44:43.608Z,6.07
2019-05-13T06:47:13.050Z,6.10
2019-05-13T06:49:42.968Z,6.20
2019-05-13T06:52:12.905Z,5.90
2019-05-13T06:54:42.386Z,6.50
2019-05-13T06:57:13.405Z,5.87
2019-05-13T06:59:43.345Z,6.27
2019-05-13T07:02:12.729Z,5.87
2019-05-13T07:04:42.341Z,6.77
2019-05-13T07:07:16.106Z,6.47
2019-05-13T07:09:43.174Z,5.97
2019-05-13T07:12:12.993Z,6.53
2019-05-13T07:14:42.463Z,6.57
2019-05-13T07:17:12.504Z,6.40
2019-05-13T07:19:42.730Z,6.77
2019-05-13T07:22:12.417Z,6.00
2019-05-13T07:24:41.791Z,6.20
2019-05-13T07:27:14.284Z,6.07
2019-05-13T07:29:43.705Z,6.63
2019-05-13T07:32:13.518Z,6.70
2019-05-13T07:34:44.112Z,6.53
2019-05-13T07:37:14.369Z,6.53
2019-05-13T07:39:44.733Z,5.83
2019-05-13T07:42:14.157Z,6.17
2019-05-13T07:44:43.584Z,6.93
2019-05-13T07:47:15.808Z,7.60
2019-05-13T07:49:44.225Z,5.50
2019-05-13T07:52:13.966Z,5.90
2019-05-13T07:54:43.450Z,5.60
2019-05-13T07:57:12.945Z,5.67
2019-05-13T07:59:42.797Z,9.30
2019-05-13T08:02:12.562Z,6.10
2019-05-13T08:04:42.245Z,6.43
2019-05-13T08:07:12.186Z,6.13
2019-05-13T08:09:42.010Z,5.77
2019-05-13T08:12:14.279Z,6.03
2019-05-13T08:14:43.728Z,6.40
2019-05-13T08:17:13.709Z,6.40
2019-05-13T08:19:43.125Z,5.80
2019-05-13T08:22:12.495Z,6.00
2019-05-13T08:24:42.757Z,5.70
2019-05-13T08:27:12.352Z,5.70
2019-05-13T08:29:42.264Z,6.43
2019-05-13T08:32:12.335Z,6.60
2019-05-13T08:34:42.151Z,6.17
2019-05-13T08:37:11.668Z,5.77
2019-05-13T08:39:41.606Z,5.30
2019-05-13T08:42:16.157Z,5.70
2019-05-13T08:44:42.304Z,5.73
2019-05-13T08:47:12.246Z,5.50
2019-05-13T08:49:42.255Z,5.90
2019-05-13T08:52:12.206Z,5.40
2019-05-13T08:54:42.381Z,5.73
2019-05-13T08:57:12.200Z,5.27
2019-05-13T08:59:42.389Z,5.50
2019-05-13T09:02:12.373Z,5.70
2019-05-13T09:04:42.403Z,5.90
2019-05-13T09:07:12.436Z,5.70
2019-05-13T09:09:42.199Z,5.27
2019-05-13T09:12:28.162Z,5.50
2019-05-13T09:14:45.741Z,5.53
2019-05-13T09:17:15.164Z,5.60
2019-05-13T09:19:44.979Z,5.43
2019-05-13T09:22:14.421Z,5.10
2019-05-13T09:24:43.792Z,5.80
2019-05-13T09:27:13.522Z,5.50
2019-05-13T09:29:43.292Z,5.33
2019-05-13T09:32:12.796Z,5.90
2019-05-13T09:34:42.465Z,6.10
2019-05-13T09:37:12.432Z,5.67
2019-05-13T09:39:42.112Z,6.03
2019-05-13T09:42:12.671Z,6.00
2019-05-13T09:44:42.628Z,5.83
2019-05-13T09:47:12.750Z,6.57
2019-05-13T09:49:42.585Z,6.17
2019-05-13T09:52:12.706Z,5.93
2019-05-13T09:54:42.825Z,6.07
2019-05-13T09:57:12.669Z,6.37
2019-05-13T09:59:42.389Z,6.57
2019-05-13T10:02:12.686Z,6.07
2019-05-13T10:04:43.582Z,6.57
2019-05-13T10:07:13.840Z,6.10
2019-05-13T10:09:47.545Z,6.70
2019-05-13T10:12:14.788Z,5.97
2019-05-13T10:14:44.645Z,6.53
2019-05-13T10:17:14.809Z,6.77
2019-05-13T10:19:44.260Z,6.50
2019-05-13T10:22:14.136Z,6.17
2019-05-13T10:24:43.626Z,6.27
2019-05-13T10:27:13.489Z,6.67
2019-05-13T10:29:43.321Z,6.47
2019-05-13T10:32:13.296Z,6.30
2019-05-13T10:34:44.006Z,6.47
2019-05-13T10:37:13.449Z,6.60
2019-05-13T10:39:42.912Z,6.70
2019-05-13T10:42:12.739Z,7.37
2019-05-13T10:44:42.497Z,6.60
2019-05-13T10:47:12.321Z,6.17
2019-05-13T10:49:42.589Z,6.80
2019-05-13T10:52:12.470Z,7.00
2019-05-13T10:54:42.405Z,6.90
2019-05-13T10:57:13.737Z,6.93
2019-05-13T10:59:43.755Z,5.90
2019-05-13T11:02:13.675Z,6.07
2019-05-13T11:04:43.497Z,6.40
2019-05-13T11:07:13.268Z,5.97
2019-05-13T11:09:42.766Z,6.70
2019-05-13T11:12:12.562Z,5.93
2019-05-13T11:14:42.367Z,6.07
2019-05-13T11:17:13.178Z,6.17
2019-05-13T11:19:43.030Z,6.37
2019-05-13T11:22:12.752Z,5.97
2019-05-13T11:24:43.094Z,6.07
2019-05-13T11:27:13.140Z,6.43
2019-05-13T11:29:42.803Z,6.50
2019-05-13T11:32:13.180Z,5.90
2019-05-13T11:34:43.131Z,6.20
2019-05-13T11:37:12.626Z,5.93
2019-05-13T11:39:42.983Z,6.33
2019-05-13T11:42:13.675Z,6.23
2019-05-13T11:44:43.642Z,5.83
2019-05-13T11:47:13.085Z,6.22
2019-05-13T11:49:42.820Z,6.33
2019-05-13T11:52:12.446Z,6.47
2019-05-13T11:54:42.649Z,6.20
2019-05-13T11:57:12.878Z,6.00
2019-05-13T11:59:43.029Z,5.83
2019-05-13T12:02:13.982Z,5.85
2019-05-13T12:04:44.183Z,6.33
2019-05-13T12:07:13.809Z,5.90
2019-05-13T12:09:43.296Z,6.10
2019-05-13T12:12:13.605Z,6.00
2019-05-13T12:15:05.010Z,6.25
2019-05-13T12:17:15.047Z,6.57
2019-05-13T12:19:44.867Z,6.37
2019-05-13T12:22:14.263Z,6.27
2019-05-13T12:24:43.727Z,6.22
2019-05-13T12:27:13.461Z,6.10
2019-05-13T12:29:43.484Z,6.08
2019-05-13T12:32:13.821Z,6.17
2019-05-13T12:34:45.946Z,6.08
2019-05-13T12:37:14.785Z,6.08
2019-05-13T12:39:44.570Z,5.92
2019-05-13T12:42:14.130Z,5.90
2019-05-13T12:45:00.486Z,6.05
2019-05-13T12:47:15.040Z,5.47
2019-05-13T12:49:44.469Z,6.60
2019-05-13T12:52:14.916Z,5.95
2019-05-13T12:54:44.677Z,5.87
2019-05-13T12:57:16.192Z,5.87
2019-05-13T12:59:46.245Z,5.83
2019-05-13T13:02:15.697Z,6.42
2019-05-13T13:05:07.750Z,5.97
2019-05-13T13:07:16.881Z,6.40
2019-05-13T13:09:46.357Z,5.97
2019-05-13T13:12:15.732Z,5.97
2019-05-13T13:14:45.219Z,5.65
2019-05-13T13:17:14.661Z,5.78
2019-05-13T13:19:44.152Z,6.12
2019-05-13T13:22:14.055Z,5.55
2019-05-13T13:24:51.255Z,6.35
2019-05-13T13:27:22.661Z,6.10
2019-05-13T13:29:45.742Z,6.05
2019-05-13T13:32:15.553Z,5.97
2019-05-13T13:34:45.361Z,5.70
2019-05-13T13:37:15.156Z,5.97
2019-05-13T13:39:45.132Z,5.50
2019-05-13T13:42:14.588Z,5.83
2019-05-13T13:44:44.095Z,6.10
2019-05-13T13:47:15.159Z,5.85
2019-05-13T13:49:44.869Z,5.70
2019-05-13T13:52:16.260Z,5.70
2019-05-13T13:54:45.818Z,5.85
2019-05-13T13:57:15.559Z,5.85
2019-05-13T14:00:16.310Z,5.60
2019-05-13T14:02:16.137Z,5.65
2019-05-13T14:04:45.890Z,5.75
2019-05-13T14:07:22.578Z,5.62
2019-05-13T14:09:46.941Z,5.78
2019-05-13T14:12:16.677Z,6.03
2019-05-13T14:14:46.123Z,6.08
2019-05-13T14:17:15.965Z,6.37
2019-05-13T14:19:45.410Z,6.00
2019-05-13T14:22:15.191Z,6.10
2019-05-13T14:24:44.713Z,5.85
2019-05-13T14:27:14.185Z,6.25
2019-05-13T14:29:49.210Z,5.80
2019-05-13T14:32:15.773Z,6.67
2019-05-13T14:34:46.326Z,5.90
2019-05-13T14:37:16.100Z,5.67
2019-05-13T14:39:45.749Z,6.15
2019-05-13T14:42:15.533Z,6.40
2019-05-13T14:44:45.634Z,6.42
2019-05-13T14:47:15.900Z,6.08
2019-05-13T14:49:45.453Z,6.22
2019-05-13T14:52:15.818Z,6.08
2019-05-13T14:54:45.337Z,5.80
2019-05-13T14:57:15.129Z,6.22
2019-05-13T14:59:45.866Z,6.00
2019-05-13T15:02:15.687Z,6.00
2019-05-13T15:04:45.140Z,6.10
2019-05-13T15:07:15.120Z,6.17
2019-05-13T15:09:44.581Z,6.08
2019-05-13T15:12:14.111Z,5.65
2019-05-13T15:14:46.281Z,6.05
2019-05-13T15:17:15.933Z,5.90
2019-05-13T15:19:45.737Z,5.53
2019-05-13T15:22:16.066Z,5.53
2019-05-13T15:24:45.957Z,5.70
2019-05-13T15:27:16.111Z,6.07
2019-05-13T15:29:46.353Z,6.37
2019-05-13T15:32:16.354Z,5.63
2019-05-13T15:34:46.029Z,5.93
2019-05-13T15:37:15.617Z,6.70
2019-05-13T15:39:56.621Z,6.67
2019-05-13T15:42:26.102Z,5.70
2019-05-13T15:44:55.914Z,5.80
2019-05-13T15:47:26.920Z,5.77
2019-05-13T15:49:56.490Z,6.10
2019-05-13T15:52:26.473Z,5.83
2019-05-13T15:54:55.969Z,5.60
2019-05-13T15:57:25.434Z,6.00
2019-05-13T15:59:55.185Z,6.13
2019-05-13T16:02:24.642Z,5.90
2019-05-13T16:05:00.971Z,5.57
2019-05-13T16:07:25.258Z,6.27
2019-05-13T16:09:54.727Z,5.63
2019-05-13T16:12:25.294Z,6.03
2019-05-13T16:14:55.065Z,5.43
2019-05-13T16:17:37.983Z,5.70
2019-05-13T16:19:56.870Z,6.03
2019-05-13T16:22:26.682Z,5.70
2019-05-13T16:24:56.233Z,6.63
2019-05-13T16:27:26.007Z,6.90
2019-05-13T16:29:57.302Z,6.00
2019-05-13T16:32:31.751Z,5.73
2019-05-13T16:35:02.702Z,5.67
2019-05-13T16:37:32.089Z,5.90
2019-05-13T16:40:02.586Z,5.70
2019-05-13T16:42:32.345Z,5.57
2019-05-13T16:45:01.926Z,6.20
2019-05-13T16:47:31.929Z,6.13
2019-05-13T16:50:02.761Z,5.63
2019-05-13T16:52:32.394Z,5.80
2019-05-13T16:55:02.708Z,5.80
2019-05-13T16:57:32.233Z,6.10
2019-05-13T17:00:02.435Z,6.20
2019-05-13T17:02:32.247Z,6.03
2019-05-13T17:05:02.110Z,5.70
2019-05-13T17:07:31.837Z,6.40
2019-05-13T17:10:03.686Z,5.90
2019-05-13T17:12:34.011Z,6.63
2019-05-13T17:15:03.524Z,5.90
2019-05-13T17:17:33.313Z,6.37
2019-05-13T17:20:02.845Z,6.00
2019-05-13T17:22:32.240Z,5.50
2019-05-13T17:25:02.490Z,6.03
2019-05-13T17:27:33.337Z,6.57
2019-05-13T17:30:02.993Z,6.40
2019-05-13T17:32:34.309Z,5.80
2019-05-13T17:35:04.242Z,5.97
2019-05-13T17:37:35.444Z,5.93
2019-05-13T17:40:05.317Z,5.87
2019-05-13T17:42:35.120Z,5.63
2019-05-13T17:45:05.248Z,5.90
2019-05-13T17:47:35.571Z,5.63
2019-05-13T17:50:05.129Z,5.67
2019-05-13T17:52:35.375Z,5.30
2019-05-13T17:55:05.053Z,5.17
2019-05-13T17:57:34.444Z,5.80
2019-05-13T18:00:05.967Z,5.73
2019-05-13T18:02:35.776Z,5.37
2019-05-13T18:05:06.009Z,5.87
2019-05-13T18:07:35.925Z,5.90
2019-05-13T18:10:05.764Z,6.07
2019-05-13T18:12:35.288Z,5.90
2019-05-13T18:15:05.825Z,6.03
2019-05-13T18:17:36.258Z,5.77
2019-05-13T18:20:06.175Z,5.47
2019-05-13T18:22:36.661Z,5.63
2019-05-13T18:25:06.572Z,6.03
2019-05-13T18:27:36.445Z,5.90
2019-05-13T18:30:07.197Z,6.23
2019-05-13T18:32:37.083Z,5.97
2019-05-13T18:35:07.602Z,6.10
2019-05-13T18:37:37.046Z,6.00
2019-05-13T18:40:07.673Z,6.50
2019-05-13T18:42:37.153Z,5.87
2019-05-13T18:45:07.813Z,5.37
2019-05-13T18:47:37.285Z,5.73
2019-05-13T18:50:07.134Z,5.87
2019-05-13T18:52:37.048Z,6.00
2019-05-13T18:55:07.103Z,5.53
2019-05-13T18:57:36.981Z,6.13
2019-05-13T19:00:06.986Z,5.93
2019-05-13T19:02:37.054Z,5.50
2019-05-13T19:05:07.129Z,5.93
2019-05-13T19:07:36.821Z,6.40
2019-05-13T19:10:06.736Z,6.50
2019-05-13T19:12:36.754Z,5.83
2019-05-13T19:15:08.523Z,5.70
2019-05-13T19:17:38.288Z,4.90
2019-05-13T19:20:11.639Z,5.63
2019-05-13T19:22:41.499Z,5.37
2019-05-13T19:25:11.977Z,5.73
2019-05-13T19:27:41.565Z,5.43
2019-05-13T19:30:12.197Z,6.50
2019-05-13T19:32:42.108Z,4.90
2019-05-13T19:35:12.201Z,5.60
2019-05-13T19:37:42.658Z,5.43
2019-05-13T19:40:13.105Z,5.17
2019-05-13T19:42:42.738Z,4.77
2019-05-13T19:45:12.493Z,5.33
2019-05-13T19:47:43.226Z,5.27
2019-05-13T19:50:13.396Z,4.90
2019-05-13T19:52:43.313Z,5.50
2019-05-13T19:55:13.014Z,5.60
2019-05-13T19:57:43.141Z,5.97
2019-05-13T20:00:14.150Z,5.23
2019-05-13T20:02:44.253Z,5.00
2019-05-13T20:05:14.008Z,4.60
2019-05-13T20:07:44.226Z,5.20
2019-05-13T20:10:13.995Z,5.60
2019-05-13T20:12:43.502Z,5.03
2019-05-13T20:15:13.132Z,4.60
2019-05-13T20:17:42.866Z,4.83
2019-05-13T20:20:12.566Z,5.13
2019-05-13T20:22:42.411Z,4.70
2019-05-13T20:25:13.314Z,5.13
2019-05-13T20:27:42.870Z,4.77
2019-05-13T20:30:13.357Z,5.43
2019-05-13T20:32:43.114Z,5.23
2019-05-13T20:35:12.553Z,4.73
2019-05-13T20:37:42.015Z,4.90
2019-05-13T20:40:11.694Z,5.03
2019-05-13T20:42:41.494Z,5.40
2019-05-13T20:45:11.674Z,5.53
2019-05-13T20:47:42.105Z,5.17
2019-05-13T20:50:12.633Z,5.00
2019-05-13T20:52:42.234Z,5.40
2019-05-13T20:55:11.707Z,4.80
2019-05-13T20:57:41.811Z,4.80
2019-05-13T21:00:11.669Z,5.10
2019-05-13T21:02:41.801Z,5.43
2019-05-13T21:05:12.142Z,4.63
2019-05-13T21:07:42.705Z,5.33
2019-05-13T21:10:12.421Z,5.40
2019-05-13T21:12:42.152Z,5.13
2019-05-13T21:15:12.985Z,4.83
2019-05-13T21:17:42.979Z,5.10
2019-05-13T21:20:19.467Z,5.07
2019-05-13T21:22:43.560Z,5.27
2019-05-13T21:25:13.229Z,6.30
2019-05-13T21:27:43.034Z,5.63
2019-05-13T21:30:12.697Z,5.83
2019-05-13T21:32:42.201Z,5.13
2019-05-13T21:35:12.136Z,5.57
2019-05-13T21:37:41.519Z,5.20
2019-05-13T21:40:11.391Z,4.50
2019-05-13T21:42:41.872Z,5.23
2019-05-13T21:45:12.704Z,5.33
2019-05-13T21:47:42.168Z,5.03
2019-05-13T21:50:13.073Z,4.97
2019-05-13T21:52:42.516Z,4.70
2019-05-13T21:55:12.068Z,5.30
2019-05-13T21:57:41.690Z,5.20
2019-05-13T22:00:16.750Z,5.00
2019-05-13T22:02:46.209Z,5.17
2019-05-13T22:05:15.801Z,5.03
2019-05-13T22:07:45.564Z,5.23
2019-05-13T22:10:15.270Z,5.33
2019-05-13T22:12:45.089Z,5.30
2019-05-13T22:15:16.432Z,4.90
2019-05-13T22:17:45.799Z,5.50
2019-05-13T22:20:15.811Z,5.57
2019-05-13T22:22:45.278Z,5.37
2019-05-13T22:25:14.896Z,5.23
2019-05-13T22:27:44.289Z,5.23
2019-05-13T22:30:16.575Z,6.03
2019-05-13T22:32:46.506Z,5.53
2019-05-13T22:35:15.877Z,5.73
2019-05-13T22:37:45.586Z,6.53
2019-05-13T22:40:15.401Z,6.10
2019-05-13T22:42:45.154Z,6.47
2019-05-13T22:45:14.823Z,6.83
2019-05-13T22:47:44.314Z,7.50
2019-05-13T22:50:14.194Z,6.60
2019-05-13T22:52:43.660Z,6.50
2019-05-13T22:55:13.633Z,6.30
2019-05-13T22:57:43.105Z,6.83
2019-05-13T23:00:12.477Z,6.13
2019-05-13T23:02:42.388Z,6.03
2019-05-13T23:05:11.947Z,6.63
2019-05-13T23:07:41.906Z,7.00
2019-05-13T23:10:11.808Z,7.20
2019-05-13T23:12:42.019Z,6.57
2019-05-13T23:15:12.047Z,6.57
2019-05-13T23:17:42.068Z,6.57
2019-05-13T23:20:12.908Z,6.23
2019-05-13T23:22:42.297Z,6.87
2019-05-13T23:25:12.339Z,6.13
2019-05-13T23:27:42.190Z,6.70
2019-05-13T23:30:12.178Z,6.63
2019-05-13T23:32:42.080Z,6.90
2019-05-13T23:35:11.892Z,6.47
2019-05-13T23:37:41.702Z,6.60
2019-05-13T23:40:11.948Z,6.40
2019-05-13T23:42:41.415Z,6.43
2019-05-13T23:45:11.445Z,6.77
2019-05-13T23:47:41.848Z,6.77
2019-05-13T23:50:12.589Z,6.10
2019-05-13T23:52:42.173Z,5.60
2019-05-13T23:55:12.161Z,6.30
2019-05-13T23:57:42.241Z,6.27
